Time;durP1;ratioP1;P1;durP2;ratioP2;P2;SDS_P1;SDS_P2;PMS_P1;PMS_P2;Temp;Humidity;BMP_temperature;BMP_pressure;BME280_temperature;BME280_humidity;BME280_pressure;Samples;Min_cycle;Max_cycle;Signal;HPM_P1;HPM_P2
2021/01/01 00:40:07;;;;;;;126.07;77.85;;;;;;;;;;6054712;29;20057;-78
2021/01/01 00:47:36;;;;;;;123.40;77.43;;;;;;;;;;6033023;29;20045;-77
2021/01/01 00:59:30;;;;;;;;;;;;;;;;;;;;;
2021/01/01 01:02:56;;;;;;;126.07;79.07;;;;;;;;;;5924095;29;20097;-79
2021/01/01 01:40:33;;;;;;;;;;;;;;;;;;;;;
2021/01/01 01:51:59;;;;;;;131.07;79.90;;;;;;;;;;5986414;29;20051;-79
2021/01/01 02:06:55;;;;;;;119.53;73.10;;;;;;;;;;5920463;29;20470;-77
2021/01/01 02:10:42;;;;;;;115.85;69.82;;;;;;;;;;5953864;29;20069;-79
2021/01/01 02:14:34;;;;;;;102.53;60.95;;;;;;;;;;6053044;29;20107;-78
2021/01/01 02:25:57;;;;;;;98.00;56.35;;;;;;;;;;5950541;29;20059;-78
2021/01/01 02:29:35;;;;;;;95.13;58.72;;;;;;;;;;5958899;29;20047;-78
2021/01/01 02:48:59;;;;;;;;;;;;;;;;;;;;;
2021/01/01 02:52:19;;;;;;;81.38;49.67;;;;;;;;;;5991368;29;20921;-78
2021/01/01 03:43:25;;;;;;;53.10;33.10;;;;;;;;;;5984110;29;20048;-77
2021/01/01 03:55:00;;;;;;;56.28;33.35;;;;;;;;;;6092709;29;20131;-77
2021/01/01 04:57:44;;;;;;;75.72;45.70;;;;;;;;;;6069051;29;20028;-77
2021/01/01 05:09:30;;;;;;;76.50;48.47;;;;;;;;;;6073554;29;20768;-77
2021/01/01 05:33:07;;;;;;;73.68;43.83;;;;;;;;;;6105400;29;20032;-77
2021/01/01 05:49:01;;;;;;;53.15;31.70;;;;;;;;;;6090012;29;20135;-77
2021/01/01 06:12:59;;;;;;;;;;;;;;;;;;;;;
2021/01/01 08:41:56;;;;;;;30.23;18.50;;;;;;;;;;5982572;29;20143;-77
2021/01/01 09:46:05;;;;;;;24.55;17.33;;;;;;;;;;5986074;29;20050;-77
2021/01/01 09:54:01;;;;;;;;;;;;;;;;;;;;;
2021/01/01 11:09:36;;;;;;;25.17;17.77;;;;;;;;;;6168791;28;20058;-77
2021/01/01 12:33:25;;;;;;;21.17;13.25;;;;;;;;;;6782433;23;62041;-74
2021/01/01 12:36:26;;;;;;;19.98;12.90;;;;;;;;;;6080547;29;20056;-74
2021/01/01 12:39:27;;;;;;;18.55;12.60;;;;;;;;;;6093924;29;20048;-73
2021/01/01 12:42:28;;;;;;;17.40;12.00;;;;;;;;;;6089313;29;20447;-74
2021/01/01 12:45:29;;;;;;;16.27;10.95;;;;;;;;;;6101800;29;20647;-73
2021/01/01 12:48:31;;;;;;;17.25;10.98;;;;;;;;;;6083358;29;20056;-73
2021/01/01 12:51:32;;;;;;;16.15;11.05;;;;;;;;;;6090058;29;20395;-74
2021/01/01 12:54:33;;;;;;;16.60;11.48;;;;;;;;;;6084596;29;20052;-74
2021/01/01 12:57:34;;;;;;;16.77;11.00;;;;;;;;;;6087843;29;20087;-73
2021/01/01 13:00:35;;;;;;;18.27;12.65;;;;;;;;;;6086113;29;20501;-73
2021/01/01 13:03:37;;;;;;;17.88;11.80;;;;;;;;;;6087555;29;20067;-74
2021/01/01 13:06:38;;;;;;;18.13;12.60;;;;;;;;;;6091108;29;20052;-73
2021/01/01 13:09:39;;;;;;;19.52;12.23;;;;;;;;;;6097013;29;20503;-74
2021/01/01 13:12:40;;;;;;;18.58;12.13;;;;;;;;;;6091838;29;20191;-74
2021/01/01 13:15:41;;;;;;;18.77;12.77;;;;;;;;;;6084696;29;22021;-74
2021/01/01 13:18:43;;;;;;;16.48;11.57;;;;;;;;;;6090981;29;20617;-73
2021/01/01 13:21:44;;;;;;;18.40;12.25;;;;;;;;;;6092481;29;20073;-73
2021/01/01 13:24:45;;;;;;;17.05;12.20;;;;;;;;;;6092130;29;20051;-74
2021/01/01 13:27:46;;;;;;;17.20;11.85;;;;;;;;;;6094745;29;20581;-73
2021/01/01 13:30:47;;;;;;;18.30;11.20;;;;;;;;;;6090636;29;20062;-74
2021/01/01 13:33:49;;;;;;;15.18;10.60;;;;;;;;;;6085978;29;20138;-73
2021/01/01 13:36:52;;;;;;;14.85;10.52;;;;;;;;;;6084390;29;20067;-74
2021/01/01 13:39:53;;;;;;;15.07;9.90;;;;;;;;;;6082988;29;20052;-74
2021/01/01 13:42:54;;;;;;;14.93;10.85;;;;;;;;;;6097167;29;20060;-74
2021/01/01 13:45:55;;;;;;;35.88;25.40;;;;;;;;;;6102400;29;20071;-73
2021/01/01 13:48:57;;;;;;;20.92;14.85;;;;;;;;;;6098832;29;20055;-74
2021/01/01 13:52:01;;;;;;;12.88;9.57;;;;;;;;;;6086853;29;20676;-74
2021/01/01 13:55:02;;;;;;;12.35;8.68;;;;;;;;;;6090114;29;20126;-73
2021/01/01 13:58:03;;;;;;;10.27;7.60;;;;;;;;;;6088808;29;20396;-74
2021/01/01 14:01:04;;;;;;;10.95;6.88;;;;;;;;;;6091245;29;20044;-73
2021/01/01 14:04:06;;;;;;;9.32;6.70;;;;;;;;;;6090457;29;20152;-73
2021/01/01 14:07:07;;;;;;;9.13;6.07;;;;;;;;;;6088705;29;20206;-73
2021/01/01 14:10:09;;;;;;;8.80;6.30;;;;;;;;;;6092293;29;20472;-73
2021/01/01 14:13:10;;;;;;;10.00;7.38;;;;;;;;;;6089216;29;20404;-74
2021/01/01 14:16:11;;;;;;;10.55;7.53;;;;;;;;;;6087746;29;20056;-73
2021/01/01 14:19:13;;;;;;;9.57;7.10;;;;;;;;;;6081518;29;20052;-73
2021/01/01 14:22:14;;;;;;;8.98;6.70;;;;;;;;;;6086229;29;20120;-74
2021/01/01 14:25:15;;;;;;;11.93;7.55;;;;;;;;;;6090109;29;20139;-73
2021/01/01 14:28:16;;;;;;;9.15;6.20;;;;;;;;;;6090500;29;20048;-74
2021/01/01 14:31:17;;;;;;;8.60;6.15;;;;;;;;;;6087641;29;20558;-74
2021/01/01 14:34:19;;;;;;;9.60;6.53;;;;;;;;;;6084928;29;20048;-74
2021/01/01 14:37:20;;;;;;;10.18;6.38;;;;;;;;;;6082152;29;21126;-74
2021/01/01 14:40:21;;;;;;;8.20;6.22;;;;;;;;;;6082383;29;20052;-74
2021/01/01 14:43:22;;;;;;;9.15;6.45;;;;;;;;;;6089649;29;20095;-74
2021/01/01 14:46:24;;;;;;;9.00;6.43;;;;;;;;;;6081291;29;20115;-73
2021/01/01 14:49:26;;;;;;;9.52;6.55;;;;;;;;;;6082781;29;20040;-74
2021/01/01 14:52:27;;;;;;;8.57;6.47;;;;;;;;;;6085271;29;20403;-74
2021/01/01 14:55:28;;;;;;;9.23;6.30;;;;;;;;;;6081001;29;20056;-75
2021/01/01 14:58:29;;;;;;;8.25;5.80;;;;;;;;;;6087026;29;20500;-74
2021/01/01 15:01:31;;;;;;;9.10;5.38;;;;;;;;;;6081702;29;20056;-73
2021/01/01 15:04:33;;;;;;;7.53;5.55;;;;;;;;;;6089353;29;20807;-74
2021/01/01 15:07:34;;;;;;;6.93;5.80;;;;;;;;;;6091399;29;20665;-73
2021/01/01 15:10:35;;;;;;;7.28;5.70;;;;;;;;;;6092512;29;20055;-74
2021/01/01 15:13:36;;;;;;;5.38;4.10;;;;;;;;;;6085487;29;20138;-74
2021/01/01 15:16:37;;;;;;;6.32;4.50;;;;;;;;;;6080485;29;20060;-74
2021/01/01 15:19:39;;;;;;;7.72;5.82;;;;;;;;;;6088414;29;20048;-74
2021/01/01 15:22:40;;;;;;;10.07;6.22;;;;;;;;;;6089598;29;20054;-73
2021/01/01 15:25:41;;;;;;;10.40;6.40;;;;;;;;;;6089900;29;20048;-73
2021/01/01 15:28:42;;;;;;;8.27;6.20;;;;;;;;;;6082141;29;20071;-74
2021/01/01 15:31:43;;;;;;;8.98;6.15;;;;;;;;;;6081266;29;20127;-73
2021/01/01 15:34:45;;;;;;;8.25;6.70;;;;;;;;;;6081480;29;20540;-73
2021/01/01 15:37:46;;;;;;;8.25;6.20;;;;;;;;;;6092260;29;20613;-74
2021/01/01 15:40:47;;;;;;;7.38;5.60;;;;;;;;;;6090709;29;20064;-73
2021/01/01 15:43:48;;;;;;;8.25;6.07;;;;;;;;;;6100245;29;20579;-73
2021/01/01 15:46:49;;;;;;;7.00;5.35;;;;;;;;;;6088014;29;20441;-74
2021/01/01 15:49:51;;;;;;;6.00;4.40;;;;;;;;;;6090423;29;20134;-73
2021/01/01 15:52:52;;;;;;;5.35;3.97;;;;;;;;;;6085887;29;20048;-74
2021/01/01 15:55:53;;;;;;;5.28;3.67;;;;;;;;;;6092361;29;20048;-74
2021/01/01 15:58:54;;;;;;;4.93;3.70;;;;;;;;;;6091202;29;20056;-72
2021/01/01 16:01:55;;;;;;;6.10;4.05;;;;;;;;;;6085715;29;20051;-75
2021/01/01 16:04:57;;;;;;;5.55;4.28;;;;;;;;;;6071653;29;20059;-74
2021/01/01 16:07:58;;;;;;;8.50;4.68;;;;;;;;;;6082239;29;20072;-74
2021/01/01 16:10:59;;;;;;;6.80;4.90;;;;;;;;;;6082677;29;20076;-74
2021/01/01 16:14:00;;;;;;;6.55;5.15;;;;;;;;;;6088482;29;20052;-74
2021/01/01 16:17:01;;;;;;;7.30;5.68;;;;;;;;;;6089258;29;20118;-74
2021/01/01 16:20:05;;;;;;;9.40;6.55;;;;;;;;;;6095888;29;20081;-73
2021/01/01 16:23:07;;;;;;;10.07;7.40;;;;;;;;;;6092358;29;20115;-74
2021/01/01 16:26:08;;;;;;;10.77;7.82;;;;;;;;;;6088121;29;20131;-73
2021/01/01 16:29:10;;;;;;;10.02;7.85;;;;;;;;;;6093279;29;20059;-73
2021/01/01 16:32:11;;;;;;;9.40;7.72;;;;;;;;;;6091249;29;20147;-74
2021/01/01 16:35:13;;;;;;;15.07;7.65;;;;;;;;;;6092923;29;20076;-73
2021/01/01 16:38:16;;;;;;;12.30;8.88;;;;;;;;;;6091750;29;20150;-73
2021/01/01 16:41:17;;;;;;;11.10;8.38;;;;;;;;;;6091880;29;20672;-73
2021/01/01 16:44:19;;;;;;;11.82;8.52;;;;;;;;;;5412554;29;10000709;-74
2021/01/01 16:47:20;;;;;;;11.98;9.43;;;;;;;;;;6089251;29;20075;-74
2021/01/01 16:50:22;;;;;;;13.43;9.45;;;;;;;;;;6089308;29;20048;-74
2021/01/01 16:53:24;;;;;;;12.88;9.45;;;;;;;;;;6092621;29;20044;-74
2021/01/01 16:56:26;;;;;;;11.35;8.77;;;;;;;;;;6087701;29;20123;-74
2021/01/01 16:59:27;;;;;;;10.45;7.97;;;;;;;;;;6094893;29;20574;-73
2021/01/01 17:02:28;;;;;;;9.80;7.55;;;;;;;;;;6090186;29;20051;-73
2021/01/01 17:05:30;;;;;;;9.60;7.07;;;;;;;;;;6087204;29;20041;-73
2021/01/01 17:08:31;;;;;;;8.38;6.85;;;;;;;;;;6089344;29;20062;-74
2021/01/01 17:11:32;;;;;;;9.98;7.47;;;;;;;;;;6089881;29;20052;-73
2021/01/01 17:14:33;;;;;;;17.25;10.95;;;;;;;;;;6080259;29;20075;-72
2021/01/01 17:17:35;;;;;;;11.15;8.30;;;;;;;;;;6090462;29;20058;-73
2021/01/01 17:20:38;;;;;;;10.70;8.25;;;;;;;;;;6089709;29;20059;-74
2021/01/01 17:23:39;;;;;;;10.25;8.20;;;;;;;;;;6091196;29;20444;-72
2021/01/01 17:26:40;;;;;;;9.15;7.32;;;;;;;;;;6095053;29;20102;-73
2021/01/01 17:29:41;;;;;;;11.68;7.80;;;;;;;;;;6094313;29;20060;-73
2021/01/01 17:32:42;;;;;;;10.30;7.75;;;;;;;;;;6093546;29;20052;-73
2021/01/01 17:35:44;;;;;;;8.35;6.80;;;;;;;;;;6085280;29;20111;-74
2021/01/01 17:38:46;;;;;;;8.88;6.95;;;;;;;;;;6090954;29;20091;-74
2021/01/01 17:41:47;;;;;;;7.93;5.68;;;;;;;;;;6092107;29;20058;-73
2021/01/01 17:44:48;;;;;;;6.97;5.18;;;;;;;;;;6096893;29;20107;-73
2021/01/01 17:47:51;;;;;;;6.53;5.32;;;;;;;;;;6091297;29;20507;-74
2021/01/01 17:50:53;;;;;;;7.22;5.55;;;;;;;;;;6088284;29;20056;-73
2021/01/01 17:53:54;;;;;;;9.07;6.57;;;;;;;;;;6089379;29;20371;-73
2021/01/01 17:56:55;;;;;;;8.40;6.40;;;;;;;;;;6081967;29;20099;-73
2021/01/01 17:59:56;;;;;;;9.43;7.00;;;;;;;;;;6091705;29;20567;-73
2021/01/01 18:02:57;;;;;;;9.75;7.18;;;;;;;;;;6092539;29;20071;-74
2021/01/01 18:06:00;;;;;;;10.85;7.63;;;;;;;;;;6088385;29;20159;-73
2021/01/01 18:09:01;;;;;;;10.75;8.00;;;;;;;;;;6087911;29;20062;-74
2021/01/01 18:12:03;;;;;;;11.48;8.10;;;;;;;;;;6088845;29;20056;-74
2021/01/01 18:15:05;;;;;;;10.40;8.32;;;;;;;;;;6093061;29;20518;-74
2021/01/01 18:18:06;;;;;;;10.73;8.68;;;;;;;;;;6094685;29;20052;-74
2021/01/01 18:21:08;;;;;;;12.48;8.95;;;;;;;;;;6100076;29;20050;-74
2021/01/01 18:24:09;;;;;;;13.13;9.93;;;;;;;;;;6096492;29;20048;-74
2021/01/01 18:27:10;;;;;;;13.63;9.98;;;;;;;;;;6092384;29;20056;-73
2021/01/01 18:30:13;;;;;;;15.57;10.40;;;;;;;;;;6087583;29;20142;-74
2021/01/01 18:33:14;;;;;;;13.63;10.38;;;;;;;;;;6085430;29;20051;-74
2021/01/01 18:36:17;;;;;;;14.40;10.57;;;;;;;;;;6083656;29;20431;-74
2021/01/01 18:39:18;;;;;;;24.35;16.77;;;;;;;;;;6089464;29;20184;-74
2021/01/01 18:42:23;;;;;;;27.52;19.30;;;;;;;;;;5746957;29;10000607;-74
2021/01/01 18:45:30;;;;;;;18.80;14.32;;;;;;;;;;6077250;29;20119;-74
2021/01/01 18:48:33;;;;;;;15.68;11.18;;;;;;;;;;6085883;29;20056;-74
2021/01/01 18:51:38;;;;;;;14.10;10.63;;;;;;;;;;6085376;29;20047;-73
2021/01/01 18:54:42;;;;;;;13.02;10.00;;;;;;;;;;6088018;29;20063;-74
2021/01/01 18:57:49;;;;;;;13.27;9.60;;;;;;;;;;6083036;29;20166;-74
2021/01/01 19:00:53;;;;;;;12.65;10.00;;;;;;;;;;6079860;29;20062;-74
2021/01/01 19:04:10;;;;;;;11.27;9.23;;;;;;;;;;6079273;29;20059;-74
2021/01/01 19:07:12;;;;;;;12.70;10.07;;;;;;;;;;6083590;29;20107;-74
2021/01/01 19:10:16;;;;;;;11.35;9.43;;;;;;;;;;6084956;29;20062;-74
2021/01/01 19:13:17;;;;;;;12.85;9.15;;;;;;;;;;6087346;29;20052;-74
2021/01/01 19:16:20;;;;;;;11.48;9.18;;;;;;;;;;6090116;29;20108;-74
2021/01/01 19:19:22;;;;;;;13.52;9.82;;;;;;;;;;6092514;29;20056;-73
2021/01/01 19:22:31;;;;;;;11.80;8.90;;;;;;;;;;6086614;29;20052;-76
2021/01/01 19:25:32;;;;;;;12.65;9.73;;;;;;;;;;6089204;29;20044;-72
2021/01/01 19:28:35;;;;;;;12.75;9.60;;;;;;;;;;6093979;29;20060;-73
2021/01/01 19:31:37;;;;;;;12.38;9.75;;;;;;;;;;6094273;29;20048;-74
2021/01/01 19:35:09;;;;;;;13.35;10.15;;;;;;;;;;6087070;29;20139;-73
2021/01/01 19:38:25;;;;;;;12.48;10.05;;;;;;;;;;6086507;29;20063;-73
2021/01/01 19:41:36;;;;;;;13.35;10.20;;;;;;;;;;6090076;29;20403;-73
2021/01/01 19:45:03;;;;;;;13.95;9.90;;;;;;;;;;6089713;29;20048;-73
2021/01/01 19:48:19;;;;;;;13.77;9.48;;;;;;;;;;6074195;29;20515;-73
2021/01/01 19:51:28;;;;;;;12.73;9.73;;;;;;;;;;6090251;29;20048;-74
2021/01/01 19:54:37;;;;;;;12.82;9.65;;;;;;;;;;6090321;29;20052;-74
2021/01/01 19:57:54;;;;;;;12.73;9.05;;;;;;;;;;6088976;29;20057;-74
2021/01/01 20:01:02;;;;;;;9.45;7.72;;;;;;;;;;6088473;29;20052;-74
2021/01/01 20:04:08;;;;;;;11.27;7.90;;;;;;;;;;6089903;29;20139;-74
2021/01/01 20:07:19;;;;;;;10.27;8.00;;;;;;;;;;6087706;29;20147;-74
2021/01/01 20:10:23;;;;;;;9.82;7.53;;;;;;;;;;6088377;29;20051;-74
2021/01/01 20:13:25;;;;;;;9.32;7.65;;;;;;;;;;6091547;29;20055;-74
2021/01/01 20:16:27;;;;;;;10.25;7.18;;;;;;;;;;6086310;29;20056;-74
2021/01/01 20:19:29;;;;;;;9.65;6.80;;;;;;;;;;6089048;29;20507;-74
2021/01/01 20:22:30;;;;;;;9.50;6.70;;;;;;;;;;6091384;29;20051;-74
2021/01/01 20:25:32;;;;;;;8.77;7.03;;;;;;;;;;6071074;29;20092;-74
2021/01/01 20:28:36;;;;;;;9.02;6.25;;;;;;;;;;6091858;29;20427;-74
2021/01/01 20:31:41;;;;;;;9.38;6.80;;;;;;;;;;6094046;29;20051;-74
2021/01/01 20:34:43;;;;;;;8.18;6.20;;;;;;;;;;6089188;29;20052;-73
2021/01/01 20:38:04;;;;;;;9.18;6.43;;;;;;;;;;6088411;29;20482;-74
2021/01/01 20:41:39;;;;;;;8.45;6.57;;;;;;;;;;6093773;29;20052;-73
2021/01/01 20:45:05;;;;;;;8.57;6.45;;;;;;;;;;6086374;29;20094;-73
2021/01/01 20:48:58;;;;;;;10.63;7.15;;;;;;;;;;6094655;29;20058;-74
2021/01/01 20:58:39;;;;;;;8.63;6.60;;;;;;;;;;6085009;29;20074;-74
2021/01/01 21:01:41;;;;;;;8.45;6.50;;;;;;;;;;6097047;29;20138;-74
2021/01/01 21:04:42;;;;;;;8.75;6.78;;;;;;;;;;6092348;29;20056;-74
2021/01/01 21:07:58;;;;;;;8.45;6.13;;;;;;;;;;6092817;29;20059;-74
2021/01/01 21:11:12;;;;;;;10.00;6.30;;;;;;;;;;6093449;29;20044;-73
2021/01/01 21:14:39;;;;;;;9.05;6.18;;;;;;;;;;6097783;29;20424;-74
2021/01/01 21:18:22;;;;;;;8.57;5.78;;;;;;;;;;6090229;29;20048;-74
2021/01/01 21:21:49;;;;;;;7.80;5.63;;;;;;;;;;6086752;29;20051;-74
2021/01/01 21:25:15;;;;;;;10.32;7.13;;;;;;;;;;6091166;29;20503;-74
2021/01/01 21:28:54;;;;;;;11.77;8.45;;;;;;;;;;6084716;29;20064;-74
2021/01/01 21:32:26;;;;;;;11.18;8.48;;;;;;;;;;6088919;29;20539;-74
2021/01/01 21:35:32;;;;;;;13.13;9.60;;;;;;;;;;6089153;29;20052;-74
2021/01/01 21:39:08;;;;;;;13.57;9.57;;;;;;;;;;6091293;29;20044;-74
2021/01/01 21:42:26;;;;;;;13.32;10.52;;;;;;;;;;6089350;29;20089;-74
2021/01/01 21:45:40;;;;;;;14.98;10.43;;;;;;;;;;6094905;29;20068;-74
2021/01/01 21:49:03;;;;;;;13.18;9.32;;;;;;;;;;6080747;29;20107;-74
2021/01/01 21:52:08;;;;;;;14.75;9.65;;;;;;;;;;6089341;29;20058;-73
2021/01/01 21:55:10;;;;;;;13.23;10.07;;;;;;;;;;6088804;29;20055;-74
2021/01/01 21:58:11;;;;;;;13.85;9.10;;;;;;;;;;6093247;29;20487;-74
2021/01/01 22:01:13;;;;;;;12.02;8.68;;;;;;;;;;6083355;29;20052;-74
2021/01/01 22:04:17;;;;;;;11.13;8.50;;;;;;;;;;6084184;29;20082;-74
2021/01/01 22:07:18;;;;;;;11.68;8.45;;;;;;;;;;6091408;29;20502;-74
2021/01/01 22:10:19;;;;;;;11.82;8.75;;;;;;;;;;6083898;29;20518;-73
2021/01/01 22:13:20;;;;;;;9.68;7.75;;;;;;;;;;6084073;29;20052;-73
2021/01/01 22:16:21;;;;;;;9.98;8.38;;;;;;;;;;6091857;29;20103;-74
2021/01/01 22:19:23;;;;;;;12.50;8.68;;;;;;;;;;6093858;29;20063;-73
2021/01/01 22:22:25;;;;;;;11.68;8.88;;;;;;;;;;6088476;29;20058;-74
2021/01/01 22:25:26;;;;;;;11.57;8.65;;;;;;;;;;6094525;29;20418;-74
2021/01/01 22:28:27;;;;;;;11.23;8.68;;;;;;;;;;6093534;29;20060;-74
2021/01/01 22:31:28;;;;;;;13.05;9.63;;;;;;;;;;6092796;29;20063;-74
2021/01/01 22:34:29;;;;;;;12.18;10.05;;;;;;;;;;6092654;29;20110;-74
2021/01/01 22:37:30;;;;;;;16.05;11.80;;;;;;;;;;6087383;29;20060;-74
2021/01/01 22:40:32;;;;;;;15.25;10.98;;;;;;;;;;6088817;29;20066;-74
2021/01/01 22:43:33;;;;;;;17.92;11.75;;;;;;;;;;6104174;29;20048;-74
2021/01/01 22:46:34;;;;;;;15.70;12.10;;;;;;;;;;6091592;29;20048;-74
2021/01/01 22:49:37;;;;;;;16.90;12.77;;;;;;;;;;6091470;29;20048;-74
2021/01/01 22:52:38;;;;;;;17.85;12.73;;;;;;;;;;6082764;29;20548;-75
2021/01/01 22:55:40;;;;;;;19.60;13.82;;;;;;;;;;6089393;29;20055;-73
2021/01/01 22:58:42;;;;;;;20.35;13.30;;;;;;;;;;6095227;29;20101;-74
2021/01/01 23:01:44;;;;;;;17.58;13.35;;;;;;;;;;6084371;29;20059;-73
2021/01/01 23:04:46;;;;;;;18.58;13.98;;;;;;;;;;6086609;29;20126;-74
2021/01/01 23:07:47;;;;;;;18.75;13.75;;;;;;;;;;6097337;29;20140;-74
2021/01/01 23:10:48;;;;;;;18.65;14.07;;;;;;;;;;6085280;29;21026;-73
2021/01/01 23:13:50;;;;;;;17.58;14.38;;;;;;;;;;6085998;29;20056;-74
2021/01/01 23:16:52;;;;;;;20.52;15.18;;;;;;;;;;6087704;29;20667;-75
2021/01/01 23:19:59;;;;;;;19.35;15.55;;;;;;;;;;6082012;29;20056;-74
2021/01/01 23:23:02;;;;;;;22.45;16.08;;;;;;;;;;6085099;29;20107;-74
2021/01/01 23:26:04;;;;;;;23.10;15.68;;;;;;;;;;6092815;29;20048;-74
2021/01/01 23:29:23;;;;;;;21.85;16.30;;;;;;;;;;6090106;29;20463;-74
2021/01/01 23:33:03;;;;;;;20.35;15.50;;;;;;;;;;6093730;29;20075;-75
2021/01/01 23:36:14;;;;;;;21.48;16.40;;;;;;;;;;6084148;29;20060;-74
2021/01/01 23:39:17;;;;;;;22.02;16.23;;;;;;;;;;6082959;29;20049;-74
2021/01/01 23:42:20;;;;;;;20.88;15.60;;;;;;;;;;6086284;29;20074;-74
2021/01/01 23:45:26;;;;;;;22.27;16.98;;;;;;;;;;6084891;29;20052;-74
2021/01/01 23:48:28;;;;;;;21.42;15.95;;;;;;;;;;6092003;29;20060;-74
2021/01/01 23:51:31;;;;;;;19.88;15.43;;;;;;;;;;6091759;29;21469;-74
2021/01/01 23:54:35;;;;;;;17.73;14.55;;;;;;;;;;6087641;29;20801;-74
2021/01/01 23:57:36;;;;;;;19.65;14.85;;;;;;;;;;6090588;29;20048;-74
